Time;durP1;ratioP1;P1;durP2;ratioP2;P2;SDS_P1;SDS_P2;PMS_P1;PMS_P2;Temp;Humidity;BMP_temperature;BMP_pressure;BME280_temperature;BME280_humidity;BME280_pressure;Samples;Min_cycle;Max_cycle;Signal;HPM_P1;HPM_P2
2023/06/26 00:02:20;;;;;;;5.93;3.58;;;;;;;18.72;100.00;92718.66;4768706;30;20105;-79
2023/06/26 00:04:46;;;;;;;7.43;3.38;;;;;;;18.68;100.00;92721.19;4768966;30;20053;-80
2023/06/26 00:07:11;;;;;;;5.10;3.33;;;;;;;18.63;100.00;92718.00;4767647;30;20051;-80
2023/06/26 00:09:37;;;;;;;8.25;3.15;;;;;;;18.61;100.00;92725.50;4768474;30;20046;-80
2023/06/26 00:12:03;;;;;;;5.07;3.10;;;;;;;18.58;100.00;92724.28;4768824;30;20048;-80
2023/06/26 00:14:29;;;;;;;7.85;3.20;;;;;;;18.58;100.00;92720.88;4769215;30;20036;-80
2023/06/26 00:16:54;;;;;;;5.78;3.38;;;;;;;18.58;100.00;92728.81;4767650;30;20079;-79
2023/06/26 00:19:20;;;;;;;7.05;3.10;;;;;;;18.58;100.00;92731.47;4767921;30;20143;-79
2023/06/26 00:21:47;;;;;;;9.80;3.35;;;;;;;18.54;100.00;92728.69;4768319;30;20438;-79
2023/06/26 00:24:14;;;;;;;7.63;3.13;;;;;;;18.49;100.00;92728.91;4767906;30;20340;-79
2023/06/26 00:26:40;;;;;;;5.45;3.75;;;;;;;18.47;100.00;92729.22;4766573;30;20098;-80
2023/06/26 00:29:05;;;;;;;5.55;3.00;;;;;;;18.44;100.00;92715.84;4768393;30;20028;-79
2023/06/26 00:31:32;;;;;;;6.93;4.00;;;;;;;18.42;100.00;92721.50;4767079;30;20472;-80
2023/06/26 00:34:01;;;;;;;6.47;3.40;;;;;;;18.40;100.00;92714.97;4765977;30;20063;-78
2023/06/26 00:36:27;;;;;;;6.32;3.20;;;;;;;18.36;100.00;92720.16;4765848;30;20040;-78
2023/06/26 00:38:52;;;;;;;5.63;3.22;;;;;;;18.34;100.00;92726.88;4766865;30;20032;-78
2023/06/26 00:41:18;;;;;;;5.25;3.28;;;;;;;18.31;100.00;92728.31;4765645;30;20059;-79
2023/06/26 00:43:44;;;;;;;6.57;3.80;;;;;;;18.28;100.00;92711.19;4764607;30;20048;-78
2023/06/26 00:46:15;;;;;;;6.28;3.13;;;;;;;18.29;100.00;92714.63;4765041;30;20043;-78
2023/06/26 00:48:42;;;;;;;7.43;3.45;;;;;;;18.24;100.00;92720.91;4748778;30;20051;-78
2023/06/26 00:51:08;;;;;;;5.88;3.70;;;;;;;18.25;100.00;92719.03;4766430;30;20047;-78
2023/06/26 00:53:34;;;;;;;6.72;3.40;;;;;;;18.24;100.00;92717.50;4749136;30;20040;-79
2023/06/26 00:56:02;;;;;;;4.78;3.10;;;;;;;18.24;100.00;92720.13;4764889;30;20051;-78
2023/06/26 00:58:28;;;;;;;5.70;3.08;;;;;;;18.20;100.00;92717.34;4764298;30;20048;-78
2023/06/26 01:00:57;;;;;;;6.47;3.60;;;;;;;18.20;100.00;92716.59;4763684;30;20154;-78
2023/06/26 01:03:24;;;;;;;7.13;3.35;;;;;;;18.16;100.00;92713.81;4763903;30;20048;-78
2023/06/26 01:05:52;;;;;;;7.43;3.78;;;;;;;18.14;100.00;92715.25;4762598;30;20101;-78
2023/06/26 01:08:19;;;;;;;7.70;3.63;;;;;;;18.12;100.00;92722.75;4763332;30;20029;-78
2023/06/26 01:10:45;;;;;;;8.82;3.22;;;;;;;18.12;100.00;92720.09;4764379;30;20064;-79
2023/06/26 01:13:13;;;;;;;6.70;4.00;;;;;;;18.08;100.00;92712.81;4764026;30;20511;-78
2023/06/26 01:15:40;;;;;;;6.15;3.70;;;;;;;18.03;100.00;92715.63;4763448;30;20051;-78
2023/06/26 01:18:05;;;;;;;6.00;3.70;;;;;;;18.00;100.00;92711.00;4764437;30;20063;-78
2023/06/26 01:20:36;;;;;;;8.95;3.55;;;;;;;18.01;100.00;92706.47;4764067;30;20078;-79
2023/06/26 01:23:14;;;;;;;5.47;3.38;;;;;;;17.98;100.00;92710.56;4764614;30;20044;-78
2023/06/26 01:26:07;;;;;;;7.20;3.63;;;;;;;17.98;100.00;92709.78;4765456;30;20052;-79
2023/06/26 01:28:36;;;;;;;6.13;3.33;;;;;;;17.96;100.00;92704.03;4763663;30;20048;-78
2023/06/26 01:31:02;;;;;;;6.68;3.35;;;;;;;17.93;100.00;92702.81;4764519;30;20051;-78
2023/06/26 01:33:30;;;;;;;5.50;3.35;;;;;;;17.91;100.00;92705.00;4764238;30;20643;-78
2023/06/26 01:35:56;;;;;;;6.20;3.35;;;;;;;17.92;100.00;92700.50;4764846;30;20040;-79
2023/06/26 01:38:25;;;;;;;6.03;3.08;;;;;;;17.91;100.00;92699.72;4765792;30;20131;-78
2023/06/26 01:40:52;;;;;;;6.07;3.60;;;;;;;17.87;100.00;92698.81;4749510;30;20050;-77
2023/06/26 01:43:35;;;;;;;7.45;3.65;;;;;;;17.85;100.00;92708.97;4764538;30;20337;-78
2023/06/26 01:46:23;;;;;;;6.53;3.50;;;;;;;17.81;100.00;92708.03;4746959;30;20461;-78
2023/06/26 01:49:34;;;;;;;5.95;3.65;;;;;;;17.79;100.00;92707.59;4762476;30;20156;-78
2023/06/26 01:52:19;;;;;;;6.07;3.50;;;;;;;17.78;100.00;92706.03;4760943;30;20101;-78
2023/06/26 01:55:23;;;;;;;6.53;3.67;;;;;;;17.77;100.00;92712.44;4746255;30;20123;-78
2023/06/26 01:57:52;;;;;;;6.05;3.50;;;;;;;17.75;100.00;92712.75;4728844;30;20063;-78
2023/06/26 02:00:20;;;;;;;6.97;3.60;;;;;;;17.71;100.00;92706.56;4761526;30;20032;-78
2023/06/26 02:02:46;;;;;;;5.30;3.40;;;;;;;17.69;100.00;92709.53;4762061;30;20116;-78
2023/06/26 02:05:14;;;;;;;5.93;3.50;;;;;;;17.64;100.00;92711.59;4764132;30;20040;-78
2023/06/26 02:07:40;;;;;;;7.13;3.63;;;;;;;17.61;100.00;92709.63;4762724;30;20028;-78
2023/06/26 02:10:06;;;;;;;10.02;3.65;;;;;;;17.56;100.00;92710.59;4763147;30;20044;-78
2023/06/26 02:12:32;;;;;;;7.38;4.00;;;;;;;17.55;100.00;92713.56;4747447;30;20138;-78
2023/06/26 02:14:58;;;;;;;6.07;4.00;;;;;;;17.52;100.00;92714.97;4747185;30;20127;-78
2023/06/26 02:17:24;;;;;;;9.45;3.88;;;;;;;17.55;100.00;92719.63;4719331;30;20048;-78
2023/06/26 02:19:53;;;;;;;7.32;3.50;;;;;;;17.57;100.00;92716.66;4762439;30;20056;-78
2023/06/26 02:22:19;;;;;;;5.43;3.42;;;;;;;17.58;100.00;92718.97;4765508;30;20111;-78
2023/06/26 02:24:44;;;;;;;5.68;3.63;;;;;;;17.58;100.00;92723.47;4748671;30;20048;-77
2023/06/26 02:27:10;;;;;;;7.75;3.67;;;;;;;17.55;100.00;92713.56;4761401;30;20051;-78
2023/06/26 02:29:37;;;;;;;6.50;3.70;;;;;;;17.52;100.00;92725.56;4761518;30;20032;-78
2023/06/26 02:32:02;;;;;;;19.00;3.90;;;;;;;17.52;100.00;92725.56;4761198;30;20040;-78
2023/06/26 02:34:28;;;;;;;5.90;3.75;;;;;;;17.50;100.00;92722.47;4760521;30;20059;-77
2023/06/26 02:36:55;;;;;;;6.65;4.03;;;;;;;17.48;100.00;92720.13;4760560;30;20046;-78
2023/06/26 02:39:21;;;;;;;6.15;3.63;;;;;;;17.46;100.00;92721.56;4759765;30;20044;-78
2023/06/26 02:41:47;;;;;;;6.60;3.92;;;;;;;17.44;100.00;92729.03;4760226;30;20120;-78
2023/06/26 02:44:14;;;;;;;6.05;3.75;;;;;;;17.43;100.00;92724.84;4744931;30;20032;-77
2023/06/26 02:46:40;;;;;;;7.75;3.80;;;;;;;17.41;100.00;92729.69;4743685;30;20059;-78
2023/06/26 02:49:07;;;;;;;5.93;3.67;;;;;;;17.41;100.00;92729.69;4759318;30;20121;-78
2023/06/26 02:51:33;;;;;;;6.95;3.78;;;;;;;17.41;100.00;92730.47;4760304;30;20044;-78
2023/06/26 02:54:02;;;;;;;6.03;4.00;;;;;;;17.40;100.00;92728.91;4759907;30;20050;-78
2023/06/26 02:56:31;;;;;;;6.82;3.90;;;;;;;17.41;100.00;92733.09;4761622;30;20123;-78
2023/06/26 02:58:58;;;;;;;9.15;3.90;;;;;;;17.36;100.00;92732.50;4730648;30;20044;-78
2023/06/26 03:01:26;;;;;;;5.72;3.50;;;;;;;17.39;100.00;92737.94;4760378;30;20059;-78
2023/06/26 03:03:52;;;;;;;7.85;4.20;;;;;;;17.37;100.00;92740.13;4759270;30;20040;-77
2023/06/26 03:06:18;;;;;;;5.78;3.72;;;;;;;17.34;100.00;92740.00;4745690;30;20044;-78
2023/06/26 03:08:44;;;;;;;7.40;3.90;;;;;;;17.31;100.00;92736.13;4745522;30;20048;-78
2023/06/26 03:11:10;;;;;;;8.77;3.45;;;;;;;17.31;100.00;92743.28;4746555;30;20090;-77
2023/06/26 03:13:37;;;;;;;6.95;3.92;;;;;;;17.29;100.00;92740.94;4748099;30;20047;-77
2023/06/26 03:16:04;;;;;;;5.68;3.70;;;;;;;17.29;100.00;92743.59;4747607;30;20480;-78
2023/06/26 03:18:30;;;;;;;6.38;3.53;;;;;;;17.30;100.00;92739.09;4763665;30;20056;-78
2023/06/26 03:20:56;;;;;;;6.25;3.60;;;;;;;17.30;100.00;92741.75;4762979;30;20046;-77
2023/06/26 03:23:23;;;;;;;6.60;3.90;;;;;;;17.31;100.00;92746.69;4762419;30;20052;-77
2023/06/26 03:25:49;;;;;;;6.43;3.55;;;;;;;17.31;100.00;92746.69;4761903;30;20040;-78
2023/06/26 03:28:22;;;;;;;5.97;3.70;;;;;;;17.30;100.00;92749.69;4764317;30;20523;-78
2023/06/26 03:30:48;;;;;;;7.38;3.53;;;;;;;17.28;100.00;92745.47;4764460;30;20075;-78
2023/06/26 03:33:14;;;;;;;8.25;3.90;;;;;;;17.26;100.00;92749.53;4765009;30;20523;-77
2023/06/26 03:35:40;;;;;;;9.95;3.70;;;;;;;17.23;100.00;92745.66;4764458;30;20094;-78
2023/06/26 03:38:08;;;;;;;7.93;3.75;;;;;;;17.23;100.00;92750.19;4764420;30;20044;-78
2023/06/26 03:40:34;;;;;;;6.03;3.47;;;;;;;17.22;100.00;92744.09;4763893;30;20043;-77
2023/06/26 03:43:00;;;;;;;5.65;3.50;;;;;;;17.23;100.00;92755.47;4763547;30;20044;-78
2023/06/26 03:45:30;;;;;;;6.70;3.88;;;;;;;17.23;100.00;92750.97;4748618;30;20421;-78
2023/06/26 03:47:55;;;;;;;6.70;3.55;;;;;;;17.27;100.00;92745.81;4763037;30;20113;-78
2023/06/26 03:50:21;;;;;;;6.47;3.80;;;;;;;17.28;100.00;92744.72;4764025;30;20126;-78
2023/06/26 03:52:46;;;;;;;8.32;3.90;;;;;;;17.28;100.00;92742.81;4761998;30;20048;-77
2023/06/26 03:55:13;;;;;;;8.02;3.80;;;;;;;17.27;100.00;92743.94;4760932;30;20040;-77
2023/06/26 03:57:38;;;;;;;8.10;3.65;;;;;;;17.30;100.00;92747.03;4761857;30;20040;-78
2023/06/26 04:00:12;;;;;;;5.60;3.65;;;;;;;17.26;100.00;92745.03;4764063;30;20480;-77
2023/06/26 04:02:40;;;;;;;7.55;3.42;;;;;;;17.27;100.00;92746.59;4763369;30;20056;-78
2023/06/26 04:05:07;;;;;;;8.85;3.50;;;;;;;17.28;100.00;92748.13;4762100;30;20040;-78
2023/06/26 04:07:34;;;;;;;5.65;3.50;;;;;;;17.31;100.00;92761.81;4762143;30;20100;-78
2023/06/26 04:10:00;;;;;;;9.77;3.90;;;;;;;17.34;100.00;92753.22;4761732;30;20051;-78
2023/06/26 04:12:26;;;;;;;6.63;3.53;;;;;;;17.36;100.00;92756.31;4761780;30;20131;-78
2023/06/26 04:14:52;;;;;;;6.75;3.67;;;;;;;17.38;100.00;92751.47;4762908;30;20340;-78
2023/06/26 04:17:17;;;;;;;9.02;4.13;;;;;;;17.41;100.00;92748.22;4763751;30;20104;-78
2023/06/26 04:19:43;;;;;;;6.93;3.75;;;;;;;17.44;100.00;92755.50;4763639;30;20036;-78
2023/06/26 04:22:08;;;;;;;7.97;3.92;;;;;;;17.45;100.00;92751.75;4760139;30;20048;-78
2023/06/26 04:24:34;;;;;;;6.00;3.63;;;;;;;17.46;100.00;92750.66;4761928;30;20478;-78
2023/06/26 04:26:59;;;;;;;9.57;4.03;;;;;;;17.47;100.00;92747.69;4763057;30;20120;-78
2023/06/26 04:29:26;;;;;;;10.10;3.95;;;;;;;17.48;100.00;92754.53;4760582;30;20507;-78
2023/06/26 04:31:57;;;;;;;5.93;3.83;;;;;;;17.50;100.00;92754.22;4762244;30;20067;-78
2023/06/26 04:34:26;;;;;;;8.73;3.90;;;;;;;17.52;100.00;92752.03;4762489;30;20050;-78
2023/06/26 04:36:52;;;;;;;8.15;4.00;;;;;;;17.54;100.00;92759.63;4761476;30;20047;-78
2023/06/26 04:39:18;;;;;;;8.27;4.18;;;;;;;17.54;100.00;92765.72;4760779;30;20123;-78
2023/06/26 04:41:46;;;;;;;7.30;3.88;;;;;;;17.58;100.00;92763.94;4762614;30;20048;-79
2023/06/26 04:44:12;;;;;;;6.82;3.97;;;;;;;17.61;100.00;92755.38;4763282;30;20050;-77
2023/06/26 04:46:41;;;;;;;6.55;3.70;;;;;;;17.67;100.00;92763.91;4761109;30;20075;-77
2023/06/26 04:49:10;;;;;;;8.30;3.80;;;;;;;17.74;100.00;92760.72;4762956;30;20043;-77
2023/06/26 04:51:40;;;;;;;6.28;3.67;;;;;;;17.80;100.00;92772.69;4762524;30;20047;-78
2023/06/26 04:54:10;;;;;;;7.05;4.10;;;;;;;17.82;100.00;92754.63;4762458;30;20113;-78
2023/06/26 04:56:36;;;;;;;7.32;4.05;;;;;;;17.84;100.00;92757.72;4760682;30;20040;-78
2023/06/26 04:59:02;;;;;;;7.07;3.83;;;;;;;17.90;100.00;92761.75;4762384;30;20057;-78
2023/06/26 05:01:29;;;;;;;6.97;4.30;;;;;;;17.96;100.00;92760.41;4761039;30;20048;-78
2023/06/26 05:03:58;;;;;;;6.65;3.92;;;;;;;18.03;100.00;92755.38;4761856;30;20044;-78
2023/06/26 05:06:24;;;;;;;5.45;3.70;;;;;;;18.09;100.00;92754.06;4760076;30;20040;-77
2023/06/26 05:08:50;;;;;;;5.63;3.67;;;;;;;18.14;100.00;92761.03;4761759;30;20118;-77
2023/06/26 05:11:15;;;;;;;9.55;4.25;;;;;;;18.20;100.00;92764.28;4763254;30;20050;-78
2023/06/26 05:13:41;;;;;;;7.40;3.95;;;;;;;18.24;100.00;92755.34;4763169;30;20048;-78
2023/06/26 05:16:08;;;;;;;6.68;4.10;;;;;;;18.33;100.00;92760.56;4762647;30;20028;-78
2023/06/26 05:18:35;;;;;;;6.75;3.67;;;;;;;18.41;100.00;92762.34;4763477;30;20060;-78
2023/06/26 05:21:01;;;;;;;6.65;4.10;;;;;;;18.49;100.00;92768.66;4762962;30;20637;-78
2023/06/26 05:23:31;;;;;;;8.43;4.10;;;;;;;18.56;100.00;92760.19;4763502;30;20036;-78
2023/06/26 05:25:56;;;;;;;7.07;4.32;;;;;;;18.62;100.00;92753.53;4762931;30;20104;-78
2023/06/26 05:28:27;;;;;;;7.97;4.32;;;;;;;18.70;100.00;92755.34;4763333;30;20044;-78
2023/06/26 05:30:54;;;;;;;10.95;4.40;;;;;;;18.79;100.00;92757.91;4763284;30;20071;-78
2023/06/26 05:33:23;;;;;;;6.95;4.00;;;;;;;18.89;100.00;92752.97;4762904;30;20119;-78
2023/06/26 05:35:51;;;;;;;7.47;4.00;;;;;;;18.91;100.00;92739.34;4764232;30;20048;-78
2023/06/26 05:38:17;;;;;;;6.97;4.03;;;;;;;19.08;100.00;92751.63;4763167;30;20040;-78
2023/06/26 05:40:43;;;;;;;6.25;3.72;;;;;;;19.19;100.00;92752.72;4763467;30;20046;-78
2023/06/26 05:43:09;;;;;;;5.40;3.58;;;;;;;19.32;100.00;92748.19;4762258;30;20466;-78
2023/06/26 05:45:35;;;;;;;7.07;3.72;;;;;;;19.50;100.00;92759.34;4763036;30;20044;-78
2023/06/26 05:48:01;;;;;;;6.85;3.85;;;;;;;20.08;100.00;92746.56;4763272;30;20040;-78
2023/06/26 05:50:27;;;;;;;6.18;3.70;;;;;;;20.84;100.00;92746.63;4748713;30;20285;-78
2023/06/26 05:52:53;;;;;;;6.32;3.80;;;;;;;21.60;100.00;92746.47;4765720;30;20119;-78
2023/06/26 05:55:19;;;;;;;6.40;4.00;;;;;;;22.31;100.00;92751.69;4765742;30;20041;-79
2023/06/26 05:57:46;;;;;;;6.75;3.80;;;;;;;22.79;100.00;92757.50;4766536;30;20076;-79
2023/06/26 06:00:13;;;;;;;8.65;4.15;;;;;;;23.21;97.61;92754.00;4765516;30;20032;-79
2023/06/26 06:02:42;;;;;;;7.38;4.00;;;;;;;23.26;93.69;92761.72;4750486;30;20455;-79
2023/06/26 06:05:08;;;;;;;10.10;4.35;;;;;;;23.56;93.87;92761.78;4765148;30;20052;-79
2023/06/26 06:07:35;;;;;;;7.68;4.43;;;;;;;24.00;91.97;92758.56;4763705;30;20148;-79
2023/06/26 06:10:02;;;;;;;7.75;4.03;;;;;;;24.48;88.41;92768.69;4764149;30;20059;-79
2023/06/26 06:12:28;;;;;;;7.15;3.92;;;;;;;24.98;86.96;92771.84;4764954;30;20556;-80
2023/06/26 06:14:54;;;;;;;5.88;3.75;;;;;;;25.49;80.45;92765.00;4766608;30;20028;-80
2023/06/26 06:17:20;;;;;;;6.00;3.60;;;;;;;25.91;73.92;92767.19;4765326;30;20047;-79
2023/06/26 06:19:46;;;;;;;6.65;3.60;;;;;;;26.23;72.41;92769.25;4784275;30;20096;-79
2023/06/26 06:22:11;;;;;;;13.35;4.32;;;;;;;26.41;71.76;92766.63;4784828;30;20544;-79
2023/06/26 06:24:37;;;;;;;10.82;4.25;;;;;;;25.85;74.34;92765.19;4784449;30;20095;-79
2023/06/26 06:27:03;;;;;;;46.85;6.60;;;;;;;25.58;75.61;92770.03;4784667;30;20167;-80
2023/06/26 06:29:28;;;;;;;9.80;4.50;;;;;;;25.37;76.61;92765.28;4784608;30;20043;-80
2023/06/26 06:31:54;;;;;;;11.52;4.38;;;;;;;25.36;76.35;92774.47;4783592;30;20036;-79
2023/06/26 06:34:20;;;;;;;7.70;4.03;;;;;;;24.83;78.92;92770.16;4785141;30;20634;-78
2023/06/26 06:36:46;;;;;;;7.43;4.40;;;;;;;24.28;84.87;92766.16;4784868;30;20116;-79
2023/06/26 06:39:12;;;;;;;14.15;4.68;;;;;;;24.25;85.67;92769.56;4784669;30;20175;-78
2023/06/26 06:41:38;;;;;;;7.55;4.28;;;;;;;24.06;83.85;92765.13;4784277;30;20048;-79
2023/06/26 06:44:05;;;;;;;8.25;4.00;;;;;;;23.83;87.09;92767.91;4783187;30;20115;-79
2023/06/26 06:46:31;;;;;;;8.15;4.35;;;;;;;23.73;86.82;92763.13;4786263;30;20071;-79
2023/06/26 06:48:56;;;;;;;8.15;4.20;;;;;;;23.63;88.91;92764.53;4788249;30;20052;-78
2023/06/26 06:51:22;;;;;;;8.00;4.40;;;;;;;23.86;85.45;92771.75;4788310;30;20075;-78
2023/06/26 06:53:48;;;;;;;8.80;4.00;;;;;;;23.62;86.27;92768.34;4788617;30;20499;-79
2023/06/26 06:56:13;;;;;;;8.80;4.45;;;;;;;23.39;86.92;92768.38;4787500;30;20118;-78
2023/06/26 06:58:42;;;;;;;9.93;4.07;;;;;;;23.27;89.48;92768.59;4772085;30;20040;-79
2023/06/26 07:01:09;;;;;;;6.72;4.30;;;;;;;23.35;87.25;92772.94;4787810;30;20058;-79
2023/06/26 07:03:35;;;;;;;5.95;4.15;;;;;;;23.08;88.62;92766.78;4788371;30;20044;-79
2023/06/26 07:06:01;;;;;;;9.85;4.50;;;;;;;23.12;90.30;92769.50;4771544;30;20086;-79
2023/06/26 07:08:27;;;;;;;6.88;3.88;;;;;;;23.03;91.55;92761.72;4787369;30;20070;-78
2023/06/26 07:10:52;;;;;;;8.65;3.83;;;;;;;23.09;92.25;92767.56;4786191;30;20032;-78
2023/06/26 07:13:18;;;;;;;7.57;4.18;;;;;;;23.23;89.02;92762.44;4787985;30;20054;-78
2023/06/26 07:15:45;;;;;;;7.45;4.30;;;;;;;23.34;89.02;92768.69;4787644;30;20044;-79
2023/06/26 07:18:11;;;;;;;7.47;4.53;;;;;;;23.32;89.46;92768.28;4787302;30;20151;-79
2023/06/26 07:20:36;;;;;;;6.72;4.60;;;;;;;23.30;87.75;92762.53;4788149;30;20071;-78
2023/06/26 07:23:02;;;;;;;10.48;4.35;;;;;;;23.31;88.12;92761.41;4787446;30;20047;-79
2023/06/26 07:25:27;;;;;;;11.18;4.57;;;;;;;23.07;88.97;92763.31;4785901;30;20047;-78
2023/06/26 07:27:53;;;;;;;7.57;4.50;;;;;;;23.16;88.04;92773.78;4787154;30;20054;-79
2023/06/26 07:30:18;;;;;;;8.68;4.30;;;;;;;23.45;89.18;92763.53;4787469;30;20032;-79
2023/06/26 07:32:44;;;;;;;6.80;4.22;;;;;;;23.83;86.05;92770.56;4787309;30;20054;-79
2023/06/26 07:35:10;;;;;;;6.10;4.03;;;;;;;23.88;85.66;92769.47;4787236;30;20078;-79
2023/06/26 07:37:36;;;;;;;6.60;4.47;;;;;;;23.59;85.13;92768.28;4787523;30;20032;-79
2023/06/26 07:40:02;;;;;;;6.38;4.22;;;;;;;23.76;86.19;92767.81;4786555;30;20125;-79
2023/06/26 07:42:27;;;;;;;10.27;3.92;;;;;;;23.73;82.67;92768.47;4786772;30;20055;-79
2023/06/26 07:44:53;;;;;;;7.53;4.40;;;;;;;23.71;82.93;92765.44;4787106;30;20032;-79
2023/06/26 07:47:19;;;;;;;6.03;4.20;;;;;;;23.89;85.68;92768.38;4785757;30;20036;-79
2023/06/26 07:49:44;;;;;;;6.88;4.40;;;;;;;23.84;82.65;92764.06;4786224;30;20028;-79
2023/06/26 07:52:10;;;;;;;10.05;4.28;;;;;;;23.80;81.62;92768.63;4785786;30;20144;-79
2023/06/26 07:54:36;;;;;;;7.75;4.35;;;;;;;23.72;81.67;92771.53;4784938;30;20047;-79
2023/06/26 07:57:06;;;;;;;10.30;4.45;;;;;;;23.85;81.23;92773.66;4785473;30;20073;-79
2023/06/26 07:59:33;;;;;;;12.50;4.57;;;;;;;23.78;81.22;92772.78;4787134;30;20051;-79
2023/06/26 08:01:59;;;;;;;6.80;4.05;;;;;;;23.71;85.36;92765.44;4785203;30;20036;-79
2023/06/26 08:04:26;;;;;;;8.77;4.00;;;;;;;23.78;82.77;92775.47;4785765;30;20039;-78
2023/06/26 08:06:54;;;;;;;8.65;4.28;;;;;;;23.68;84.77;92777.59;4755305;30;20144;-79
2023/06/26 08:09:20;;;;;;;8.88;4.22;;;;;;;23.69;84.08;92775.69;4769474;30;20028;-79
2023/06/26 08:11:47;;;;;;;6.97;4.20;;;;;;;23.78;87.21;92770.88;4786211;30;20067;-79
2023/06/26 08:14:12;;;;;;;6.65;4.53;;;;;;;24.16;85.38;92768.28;4785920;30;20065;-79
2023/06/26 08:16:39;;;;;;;9.95;4.28;;;;;;;24.29;84.45;92774.94;4784067;30;20039;-80
2023/06/26 08:19:05;;;;;;;6.95;4.20;;;;;;;24.13;85.88;92767.13;4784151;30;20056;-80
2023/06/26 08:21:30;;;;;;;7.93;4.55;;;;;;;24.09;85.67;92766.28;4785624;30;20058;-78
2023/06/26 08:23:56;;;;;;;12.30;4.75;;;;;;;24.42;82.77;92775.47;4785590;30;20036;-79
2023/06/26 08:26:22;;;;;;;7.22;4.57;;;;;;;24.35;83.86;92775.41;4784418;30;20047;-79
2023/06/26 08:28:47;;;;;;;7.07;4.13;;;;;;;24.49;84.62;92767.53;4786196;30;20040;-80
2023/06/26 08:31:13;;;;;;;9.45;4.47;;;;;;;24.42;83.63;92776.22;4785451;30;20047;-79
2023/06/26 08:33:38;;;;;;;6.80;4.13;;;;;;;24.46;84.69;92771.69;4786034;30;20036;-80
2023/06/26 08:36:04;;;;;;;9.68;4.90;;;;;;;24.30;83.68;92763.88;4785933;30;20063;-79
2023/06/26 08:38:30;;;;;;;10.13;4.78;;;;;;;24.28;84.09;92765.38;4786198;30;20126;-80
2023/06/26 08:40:55;;;;;;;9.82;4.80;;;;;;;24.31;85.23;92762.72;4769123;30;20032;-79
2023/06/26 08:43:21;;;;;;;7.10;4.03;;;;;;;24.22;85.64;92759.56;4786680;30;20173;-78
2023/06/26 08:45:51;;;;;;;7.72;3.90;;;;;;;24.44;85.56;92762.50;4785366;30;20047;-78
2023/06/26 08:48:18;;;;;;;6.43;4.32;;;;;;;24.43;81.53;92763.63;4784289;30;20504;-79
2023/06/26 08:50:44;;;;;;;7.47;4.10;;;;;;;24.59;82.77;92760.75;4785689;30;20070;-80
2023/06/26 08:53:13;;;;;;;9.38;4.13;;;;;;;24.41;80.10;92764.00;4786394;30;20039;-79
2023/06/26 08:55:41;;;;;;;7.35;4.05;;;;;;;24.35;84.42;92752.09;4786575;30;20034;-78
2023/06/26 08:58:07;;;;;;;8.18;4.38;;;;;;;24.46;81.12;92752.97;4785296;30;20375;-79
2023/06/26 09:00:34;;;;;;;9.30;4.00;;;;;;;24.42;82.37;92752.16;4784815;30;20116;-79
2023/06/26 09:03:00;;;;;;;9.88;3.97;;;;;;;24.53;79.96;92749.63;4784728;30;20114;-79
2023/06/26 09:05:31;;;;;;;6.70;4.63;;;;;;;24.40;81.07;92751.00;4784575;30;20048;-79
2023/06/26 09:07:58;;;;;;;7.90;4.03;;;;;;;24.47;82.48;92751.84;4783887;30;20099;-78
2023/06/26 09:10:24;;;;;;;7.53;4.43;;;;;;;24.75;81.48;92749.84;4784195;30;20035;-79
2023/06/26 09:12:50;;;;;;;6.47;4.10;;;;;;;24.75;78.87;92752.53;4786384;30;20103;-79
2023/06/26 09:15:18;;;;;;;6.80;4.20;;;;;;;24.73;81.92;92748.28;4785660;30;20091;-79
2023/06/26 09:17:44;;;;;;;9.45;4.43;;;;;;;24.49;79.49;92748.81;4784965;30;20058;-79
2023/06/26 09:20:14;;;;;;;6.10;4.00;;;;;;;24.60;81.01;92739.00;4783246;30;20047;-79
2023/06/26 09:22:41;;;;;;;9.75;4.40;;;;;;;24.53;77.02;92744.28;4783748;30;20066;-80
2023/06/26 09:25:08;;;;;;;7.43;4.00;;;;;;;24.60;80.67;92749.69;4784535;30;20023;-78
2023/06/26 09:27:36;;;;;;;8.77;4.43;;;;;;;24.31;79.37;92746.69;4785387;30;20039;-79
2023/06/26 09:30:03;;;;;;;5.80;4.05;;;;;;;24.38;81.15;92739.88;4785246;30;20087;-78
2023/06/26 09:32:29;;;;;;;7.15;3.97;;;;;;;24.47;79.09;92741.16;4784532;30;20042;-79
2023/06/26 09:35:00;;;;;;;6.97;4.30;;;;;;;24.56;78.91;92740.84;4783154;30;20036;-79
2023/06/26 09:37:26;;;;;;;10.93;4.25;;;;;;;24.60;78.84;92739.00;4785017;30;20044;-77
2023/06/26 09:39:52;;;;;;;6.75;4.13;;;;;;;24.88;76.77;92735.81;4784838;30;20134;-79
2023/06/26 09:42:19;;;;;;;8.93;4.22;;;;;;;25.03;77.24;92734.00;4784978;30;20466;-79
2023/06/26 09:44:45;;;;;;;7.63;4.20;;;;;;;25.37;74.77;92731.22;4768668;30;20052;-79
2023/06/26 09:47:11;;;;;;;7.60;4.50;;;;;;;25.35;75.82;92728.16;4784926;30;20044;-79
2023/06/26 09:49:41;;;;;;;7.47;4.25;;;;;;;25.32;75.92;92731.59;4784982;30;20467;-79
2023/06/26 09:52:07;;;;;;;7.40;4.20;;;;;;;25.43;76.83;92728.97;4784430;30;20556;-79
2023/06/26 09:54:32;;;;;;;6.20;4.35;;;;;;;25.40;74.83;92725.13;4782843;30;20127;-78
2023/06/26 09:57:13;;;;;;;7.75;4.38;;;;;;;25.40;75.85;92727.81;4784511;30;20037;-78
2023/06/26 09:59:39;;;;;;;5.97;4.10;;;;;;;25.59;75.51;92726.00;4784525;30;20035;-79
2023/06/26 10:02:06;;;;;;;7.85;4.15;;;;;;;25.84;75.70;92726.91;4784314;30;20044;-78
2023/06/26 10:04:32;;;;;;;6.55;4.35;;;;;;;25.85;74.09;92723.09;4783939;30;20046;-79
2023/06/26 10:07:01;;;;;;;7.82;4.45;;;;;;;25.75;72.36;92718.44;4784516;30;20452;-79
2023/06/26 10:09:27;;;;;;;9.05;4.60;;;;;;;25.39;74.71;92723.59;4783658;30;20048;-80
2023/06/26 10:11:59;;;;;;;5.45;4.10;;;;;;;25.10;78.83;92722.59;4783925;30;20411;-78
2023/06/26 10:14:26;;;;;;;;;;;;;;;25.61;77.07;92729.09;4782692;30;20043;-79
2023/06/26 10:16:53;;;;;;;7.13;4.70;;;;;;;25.53;76.31;92715.66;4784706;30;19967;-79
2023/06/26 10:19:24;;;;;;;6.20;4.78;;;;;;;25.95;76.14;92717.00;4782752;30;20209;-80
2023/06/26 10:22:01;;;;;;;7.32;4.30;;;;;;;26.36;75.48;92719.44;4785459;30;20058;-79
2023/06/26 10:24:34;;;;;;;8.68;4.47;;;;;;;26.63;75.35;92718.41;4784630;30;20126;-79
2023/06/26 10:27:20;;;;;;;7.40;4.38;;;;;;;26.88;71.46;92721.09;4784319;30;20144;-78
2023/06/26 10:29:58;;;;;;;6.90;4.28;;;;;;;27.02;70.49;92721.13;4785022;30;20043;-78
2023/06/26 10:32:27;;;;;;;7.80;4.80;;;;;;;27.21;72.05;92728.06;4784881;30;20542;-79
2023/06/26 10:34:55;;;;;;;13.35;4.55;;;;;;;27.24;65.99;92721.13;4784242;30;20042;-79
2023/06/26 10:37:21;;;;;;;6.68;4.18;;;;;;;26.92;69.16;92713.81;4784718;30;20043;-78
2023/06/26 10:39:51;;;;;;;8.65;4.00;;;;;;;27.10;71.66;92719.19;4767804;30;20036;-81
2023/06/26 10:42:18;;;;;;;5.63;3.75;;;;;;;26.79;70.86;92713.41;4764393;30;20040;-78
2023/06/26 10:44:46;;;;;;;5.60;3.80;;;;;;;26.89;69.39;92710.00;4784134;30;20036;-78
2023/06/26 10:47:32;;;;;;;8.27;4.60;;;;;;;26.76;71.20;92725.69;4783195;30;20115;-79
2023/06/26 10:50:18;;;;;;;6.40;4.43;;;;;;;27.02;71.27;92709.59;4767990;30;20115;-78
2023/06/26 10:52:44;;;;;;;6.88;4.60;;;;;;;26.86;71.53;92709.97;4784388;30;20310;-79
2023/06/26 10:55:11;;;;;;;7.78;4.60;;;;;;;27.15;72.63;92708.81;4783805;30;20052;-78
2023/06/26 10:57:38;;;;;;;5.82;3.90;;;;;;;27.48;69.10;92714.19;4784769;30;20028;-79
2023/06/26 11:00:13;;;;;;;6.97;4.38;;;;;;;27.14;70.26;92719.97;4785393;30;20063;-79
2023/06/26 11:02:53;;;;;;;9.02;4.80;;;;;;;27.32;66.59;92709.25;4784538;30;20075;-79
2023/06/26 11:05:33;;;;;;;7.97;4.88;;;;;;;27.43;68.88;92711.91;4784257;30;20072;-78
2023/06/26 11:08:11;;;;;;;7.65;4.85;;;;;;;27.30;71.11;92706.94;4783065;30;20047;-79
2023/06/26 11:10:50;;;;;;;6.60;4.50;;;;;;;27.48;66.14;92708.81;4783832;30;20053;-79
2023/06/26 11:13:18;;;;;;;10.18;4.50;;;;;;;27.41;62.08;92712.28;4785411;30;20052;-79
2023/06/26 11:15:46;;;;;;;6.63;4.53;;;;;;;27.15;64.58;92706.13;4783420;30;20034;-79
2023/06/26 11:18:14;;;;;;;6.28;4.35;;;;;;;27.36;68.84;92704.63;4768066;30;20072;-79
2023/06/26 11:20:40;;;;;;;7.90;4.47;;;;;;;27.44;67.99;92700.00;4782457;30;20047;-79
2023/06/26 11:23:07;;;;;;;6.85;4.85;;;;;;;27.24;68.20;92708.47;4768738;30;20060;-80
2023/06/26 11:25:37;;;;;;;6.72;4.40;;;;;;;27.65;68.63;92707.25;4783292;30;20043;-79
2023/06/26 11:28:04;;;;;;;8.65;4.63;;;;;;;27.45;68.66;92707.69;4785264;30;20032;-79
2023/06/26 11:30:30;;;;;;;6.40;4.20;;;;;;;27.43;67.31;92712.69;4782814;30;20044;-80
2023/06/26 11:33:26;;;;;;;10.13;4.97;;;;;;;27.11;66.88;92718.03;4787858;30;20044;-79